sensor_id;sensor_type;location;lat;lon;timestamp;pressure;altitude;pressure_sealevel;temperature;humidity
46223;BME280;31943;51.410;7.564;2023-04-01T00:02:23;98105.19;;;10.50;71.77
46223;BME280;31943;51.410;7.564;2023-04-01T00:04:50;98104.28;;;10.53;71.48
46223;BME280;31943;51.410;7.564;2023-04-01T00:07:16;98092.09;;;10.53;71.57
46223;BME280;31943;51.410;7.564;2023-04-01T00:09:44;98098.13;;;10.55;71.46
46223;BME280;31943;51.410;7.564;2023-04-01T00:12:09;98093.72;;;10.59;71.68
46223;BME280;31943;51.410;7.564;2023-04-01T00:14:35;98101.56;;;10.57;71.41
46223;BME280;31943;51.410;7.564;2023-04-01T00:17:01;98097.28;;;10.55;71.86
46223;BME280;31943;51.410;7.564;2023-04-01T00:19:26;98100.72;;;10.57;71.70
46223;BME280;31943;51.410;7.564;2023-04-01T00:21:52;98102.41;;;10.58;71.85
46223;BME280;31943;51.410;7.564;2023-04-01T00:24:18;98103.25;;;10.58;71.98
46223;BME280;31943;51.410;7.564;2023-04-01T00:26:48;98099.00;;;10.56;71.80
46223;BME280;31943;51.410;7.564;2023-04-01T00:29:13;98101.72;;;10.51;71.94
46223;BME280;31943;51.410;7.564;2023-04-01T00:31:39;98098.16;;;10.54;72.00
46223;BME280;31943;51.410;7.564;2023-04-01T00:34:05;98097.47;;;10.47;71.77
46223;BME280;31943;51.410;7.564;2023-04-01T00:36:30;98091.44;;;10.45;72.16
46223;BME280;31943;51.410;7.564;2023-04-01T00:38:57;98099.28;;;10.43;72.21
46223;BME280;31943;51.410;7.564;2023-04-01T00:41:23;98094.97;;;10.42;72.09
46223;BME280;31943;51.410;7.564;2023-04-01T00:43:51;98088.88;;;10.42;72.00
46223;BME280;31943;51.410;7.564;2023-04-01T00:46:17;98090.56;;;10.44;72.32
46223;BME280;31943;51.410;7.564;2023-04-01T00:48:45;98083.63;;;10.45;72.20
46223;BME280;31943;51.410;7.564;2023-04-01T00:51:16;98088.78;;;10.46;72.54
46223;BME280;31943;51.410;7.564;2023-04-01T00:53:45;98091.34;;;10.48;72.62
46223;BME280;31943;51.410;7.564;2023-04-01T00:56:16;98086.91;;;10.52;72.04
46223;BME280;31943;51.410;7.564;2023-04-01T00:58:48;98082.72;;;10.46;72.08
46223;BME280;31943;51.410;7.564;2023-04-01T01:01:20;98088.06;;;10.40;72.19
46223;BME280;31943;51.410;7.564;2023-04-01T01:03:47;98088.91;;;10.40;72.31
46223;BME280;31943;51.410;7.564;2023-04-01T01:06:24;98085.53;;;10.37;72.44
46223;BME280;31943;51.410;7.564;2023-04-01T01:09:20;98084.50;;;10.44;72.67
46223;BME280;31943;51.410;7.564;2023-04-01T01:11:54;98080.13;;;10.44;72.71
46223;BME280;31943;51.410;7.564;2023-04-01T01:14:28;98087.94;;;10.44;72.66
46223;BME280;31943;51.410;7.564;2023-04-01T01:17:08;98081.03;;;10.43;72.52
46223;BME280;31943;51.410;7.564;2023-04-01T01:19:57;98073.25;;;10.42;72.60
46223;BME280;31943;51.410;7.564;2023-04-01T01:22:48;98079.59;;;10.32;72.47
46223;BME280;31943;51.410;7.564;2023-04-01T01:25:30;98079.63;;;10.27;72.66
46223;BME280;31943;51.410;7.564;2023-04-01T01:28:05;98065.78;;;10.25;72.65
46223;BME280;31943;51.410;7.564;2023-04-01T01:30:43;98067.50;;;10.26;72.92
46223;BME280;31943;51.410;7.564;2023-04-01T01:33:35;98070.06;;;10.29;72.64
46223;BME280;31943;51.410;7.564;2023-04-01T01:36:09;98064.94;;;10.24;72.84
46223;BME280;31943;51.410;7.564;2023-04-01T01:38:42;98061.47;;;10.25;73.17
46223;BME280;31943;51.410;7.564;2023-04-01T01:41:09;98057.88;;;10.29;72.94
46223;BME280;31943;51.410;7.564;2023-04-01T01:43:37;98068.41;;;10.25;72.89
46223;BME280;31943;51.410;7.564;2023-04-01T01:46:08;98063.97;;;10.30;72.96
46223;BME280;31943;51.410;7.564;2023-04-01T01:48:35;98068.31;;;10.31;72.73
46223;BME280;31943;51.410;7.564;2023-04-01T01:51:03;98068.31;;;10.31;72.82
46223;BME280;31943;51.410;7.564;2023-04-01T01:53:32;98063.09;;;10.31;72.46
46223;BME280;31943;51.410;7.564;2023-04-01T01:55:59;98061.38;;;10.28;72.82
46223;BME280;31943;51.410;7.564;2023-04-01T01:58:28;98057.97;;;10.25;72.76
46223;BME280;31943;51.410;7.564;2023-04-01T02:00:57;98052.75;;;10.25;72.89
46223;BME280;31943;51.410;7.564;2023-04-01T02:03:26;98055.34;;;10.26;72.63
46223;BME280;31943;51.410;7.564;2023-04-01T02:05:56;98063.09;;;10.29;72.65
46223;BME280;31943;51.410;7.564;2023-04-01T02:08:25;98058.72;;;10.32;72.84
46223;BME280;31943;51.410;7.564;2023-04-01T02:10:58;98062.06;;;10.37;72.74
46223;BME280;31943;51.410;7.564;2023-04-01T02:13:29;98064.56;;;10.41;72.34
46223;BME280;31943;51.410;7.564;2023-04-01T02:15:59;98060.25;;;10.40;72.45
46223;BME280;31943;51.410;7.564;2023-04-01T02:18:26;98070.84;;;10.33;72.53
46223;BME280;31943;51.410;7.564;2023-04-01T02:20:57;98061.38;;;10.27;72.68
46223;BME280;31943;51.410;7.564;2023-04-01T02:23:24;98069.38;;;10.21;73.00
46223;BME280;31943;51.410;7.564;2023-04-01T02:25:50;98061.47;;;10.24;73.09
46223;BME280;31943;51.410;7.564;2023-04-01T02:28:18;98063.28;;;10.22;73.15
46223;BME280;31943;51.410;7.564;2023-04-01T02:30:46;98066.69;;;10.24;73.19
46223;BME280;31943;51.410;7.564;2023-04-01T02:33:24;98068.53;;;10.19;73.24
46223;BME280;31943;51.410;7.564;2023-04-01T02:35:50;98070.34;;;10.17;72.90
46223;BME280;31943;51.410;7.564;2023-04-01T02:38:16;98068.56;;;10.17;73.01
46223;BME280;31943;51.410;7.564;2023-04-01T02:40:45;98063.41;;;10.16;73.13
46223;BME280;31943;51.410;7.564;2023-04-01T02:43:11;98069.47;;;10.16;73.13
46223;BME280;31943;51.410;7.564;2023-04-01T02:45:38;98065.16;;;10.15;73.12
46223;BME280;31943;51.410;7.564;2023-04-01T02:48:04;98068.66;;;10.14;72.54
46223;BME280;31943;51.410;7.564;2023-04-01T02:50:30;98059.06;;;10.16;72.63
46223;BME280;31943;51.410;7.564;2023-04-01T02:52:56;98059.88;;;10.18;72.45
46223;BME280;31943;51.410;7.564;2023-04-01T02:55:22;98056.44;;;10.16;72.27
46223;BME280;31943;51.410;7.564;2023-04-01T02:57:47;98060.75;;;10.17;72.35
46223;BME280;31943;51.410;7.564;2023-04-01T03:00:15;98063.50;;;10.11;72.46
46223;BME280;31943;51.410;7.564;2023-04-01T03:02:44;98055.69;;;10.11;72.19
46223;BME280;31943;51.410;7.564;2023-04-01T03:05:09;98050.56;;;10.08;72.57
46223;BME280;31943;51.410;7.564;2023-04-01T03:07:35;98052.19;;;10.14;72.35
46223;BME280;31943;51.410;7.564;2023-04-01T03:10:02;98054.72;;;10.15;72.46
46223;BME280;31943;51.410;7.564;2023-04-01T03:12:27;98060.75;;;10.17;72.19
46223;BME280;31943;51.410;7.564;2023-04-01T03:14:53;98061.78;;;10.12;72.37
46223;BME280;31943;51.410;7.564;2023-04-01T03:17:18;98062.63;;;10.12;72.08
46223;BME280;31943;51.410;7.564;2023-04-01T03:19:46;98059.03;;;10.18;71.96
46223;BME280;31943;51.410;7.564;2023-04-01T03:22:11;98059.06;;;10.16;72.24
46223;BME280;31943;51.410;7.564;2023-04-01T03:24:37;98058.13;;;10.19;72.14
46223;BME280;31943;51.410;7.564;2023-04-01T03:27:03;98058.09;;;10.20;72.06
46223;BME280;31943;51.410;7.564;2023-04-01T03:29:29;98068.53;;;10.19;72.07
46223;BME280;31943;51.410;7.564;2023-04-01T03:31:54;98061.78;;;10.12;72.39
46223;BME280;31943;51.410;7.564;2023-04-01T03:34:20;98074.81;;;10.12;72.32
46223;BME280;31943;51.410;7.564;2023-04-01T03:36:47;98072.94;;;10.17;72.67
46223;BME280;31943;51.410;7.564;2023-04-01T03:39:13;98063.34;;;10.17;72.48
46223;BME280;31943;51.410;7.564;2023-04-01T03:41:39;98069.47;;;10.16;72.45
46223;BME280;31943;51.410;7.564;2023-04-01T03:44:05;98065.13;;;10.17;72.34
46223;BME280;31943;51.410;7.564;2023-04-01T03:46:31;98070.41;;;10.14;72.51
46223;BME280;31943;51.410;7.564;2023-04-01T03:48:56;98072.31;;;10.05;72.47
46223;BME280;31943;51.410;7.564;2023-04-01T03:51:22;98068.94;;;10.02;72.39
46223;BME280;31943;51.410;7.564;2023-04-01T03:53:50;98070.69;;;10.01;72.98
46223;BME280;31943;51.410;7.564;2023-04-01T03:56:17;98065.47;;;10.01;72.76
46223;BME280;31943;51.410;7.564;2023-04-01T03:58:43;98072.38;;;10.04;72.99
46223;BME280;31943;51.410;7.564;2023-04-01T04:01:17;98075.72;;;10.09;73.15
46223;BME280;31943;51.410;7.564;2023-04-01T04:03:43;98074.03;;;10.08;73.00
46223;BME280;31943;51.410;7.564;2023-04-01T04:06:11;98070.63;;;10.04;73.11
46223;BME280;31943;51.410;7.564;2023-04-01T04:08:38;98078.56;;;10.00;73.17
46223;BME280;31943;51.410;7.564;2023-04-01T04:11:06;98077.63;;;10.02;73.08
46223;BME280;31943;51.410;7.564;2023-04-01T04:13:32;98086.25;;;10.04;72.77
46223;BME280;31943;51.410;7.564;2023-04-01T04:16:00;98085.47;;;10.01;73.12
46223;BME280;31943;51.410;7.564;2023-04-01T04:18:25;98083.81;;;9.97;73.07
46223;BME280;31943;51.410;7.564;2023-04-01T04:20:51;98089.03;;;9.97;73.39
46223;BME280;31943;51.410;7.564;2023-04-01T04:23:17;98093.38;;;9.96;73.71
46223;BME280;31943;51.410;7.564;2023-04-01T04:25:54;98088.88;;;10.03;73.45
46223;BME280;31943;51.410;7.564;2023-04-01T04:28:22;98090.63;;;10.04;73.01
46223;BME280;31943;51.410;7.564;2023-04-01T04:30:49;98092.34;;;10.03;73.08
46223;BME280;31943;51.410;7.564;2023-04-01T04:33:18;98094.94;;;10.03;73.46
46223;BME280;31943;51.410;7.564;2023-04-01T04:35:44;98092.34;;;10.03;73.34
46223;BME280;31943;51.410;7.564;2023-04-01T04:38:09;98095.69;;;10.10;73.55
46223;BME280;31943;51.410;7.564;2023-04-01T04:40:35;98096.47;;;10.14;73.38
46223;BME280;31943;51.410;7.564;2023-04-01T04:43:01;98097.44;;;10.09;73.03
46223;BME280;31943;51.410;7.564;2023-04-01T04:45:28;98107.81;;;10.11;73.42
46223;BME280;31943;51.410;7.564;2023-04-01T04:47:55;98104.38;;;10.09;73.43
46223;BME280;31943;51.410;7.564;2023-04-01T04:50:22;98110.41;;;10.11;73.19
46223;BME280;31943;51.410;7.564;2023-04-01T04:52:48;98109.72;;;10.04;73.29
46223;BME280;31943;51.410;7.564;2023-04-01T04:55:14;98113.94;;;10.10;73.26
46223;BME280;31943;51.410;7.564;2023-04-01T04:57:40;98112.16;;;10.10;73.15
46223;BME280;31943;51.410;7.564;2023-04-01T05:00:07;98109.56;;;10.10;73.41
46223;BME280;31943;51.410;7.564;2023-04-01T05:02:36;98118.16;;;10.16;73.29
46223;BME280;31943;51.410;7.564;2023-04-01T05:05:02;98112.13;;;10.14;73.04
46223;BME280;31943;51.410;7.564;2023-04-01T05:07:29;98116.38;;;10.16;73.26
46223;BME280;31943;51.410;7.564;2023-04-01T05:09:55;98118.94;;;10.19;72.95
46223;BME280;31943;51.410;7.564;2023-04-01T05:12:21;98114.50;;;10.23;73.02
46223;BME280;31943;51.410;7.564;2023-04-01T05:14:47;98106.63;;;10.26;73.02
46223;BME280;31943;51.410;7.564;2023-04-01T05:17:15;98118.81;;;10.24;73.24
46223;BME280;31943;51.410;7.564;2023-04-01T05:19:43;98114.50;;;10.23;73.00
46223;BME280;31943;51.410;7.564;2023-04-01T05:22:10;98115.41;;;10.22;73.34
46223;BME280;31943;51.410;7.564;2023-04-01T05:24:37;98115.41;;;10.22;73.18
46223;BME280;31943;51.410;7.564;2023-04-01T05:27:03;98118.88;;;10.21;73.19
46223;BME280;31943;51.410;7.564;2023-04-01T05:29:28;98121.50;;;10.21;73.21
46223;BME280;31943;51.410;7.564;2023-04-01T05:31:54;98122.53;;;10.14;73.51
46223;BME280;31943;51.410;7.564;2023-04-01T05:34:20;98121.56;;;10.18;73.30
46223;BME280;31943;51.410;7.564;2023-04-01T05:36:47;98118.09;;;10.17;73.31
46223;BME280;31943;51.410;7.564;2023-04-01T05:39:13;98125.97;;;10.16;73.25
46223;BME280;31943;51.410;7.564;2023-04-01T05:41:39;98133.66;;;10.22;73.41
46223;BME280;31943;51.410;7.564;2023-04-01T05:44:05;98131.84;;;10.24;73.38
46223;BME280;31943;51.410;7.564;2023-04-01T05:46:31;98136.28;;;10.20;73.37
46223;BME280;31943;51.410;7.564;2023-04-01T05:48:56;98137.03;;;10.25;73.35
46223;BME280;31943;51.410;7.564;2023-04-01T05:51:22;98134.34;;;10.30;73.32
46223;BME280;31943;51.410;7.564;2023-04-01T05:53:49;98137.72;;;10.35;73.25
46223;BME280;31943;51.410;7.564;2023-04-01T05:56:16;98138.44;;;10.42;73.44
46223;BME280;31943;51.410;7.564;2023-04-01T05:58:46;98136.66;;;10.42;73.09
46223;BME280;31943;51.410;7.564;2023-04-01T06:01:16;98139.34;;;10.41;73.12
46223;BME280;31943;51.410;7.564;2023-04-01T06:03:43;98135.00;;;10.40;73.10
46223;BME280;31943;51.410;7.564;2023-04-01T06:06:13;98140.19;;;10.41;73.04
46223;BME280;31943;51.410;7.564;2023-04-01T06:08:39;98137.50;;;10.44;73.18
46223;BME280;31943;51.410;7.564;2023-04-01T06:11:18;98140.09;;;10.44;73.39
46223;BME280;31943;51.410;7.564;2023-04-01T06:14:00;98139.06;;;10.52;73.07
46223;BME280;31943;51.410;7.564;2023-04-01T06:16:40;98143.31;;;10.56;73.06
46223;BME280;31943;51.410;7.564;2023-04-01T06:19:28;98144.09;;;10.59;72.92
46223;BME280;31943;51.410;7.564;2023-04-01T06:25:25;98151.97;;;10.58;73.27
46223;BME280;31943;51.410;7.564;2023-04-01T06:31:00;98166.59;;;10.65;73.11
46223;BME280;31943;51.410;7.564;2023-04-01T06:33:41;98168.34;;;10.64;73.17
46223;BME280;31943;51.410;7.564;2023-04-01T06:36:31;98164.69;;;10.72;72.76
46223;BME280;31943;51.410;7.564;2023-04-01T06:39:11;98169.09;;;10.68;72.71
46223;BME280;31943;51.410;7.564;2023-04-01T06:44:53;98167.38;;;10.68;73.05
46223;BME280;31943;51.410;7.564;2023-04-01T06:47:37;98166.38;;;10.74;72.72
46223;BME280;31943;51.410;7.564;2023-04-01T06:50:12;98165.44;;;10.77;72.69
46223;BME280;31943;51.410;7.564;2023-04-01T06:52:50;98174.88;;;10.82;73.02
46223;BME280;31943;51.410;7.564;2023-04-01T06:55:27;98166.88;;;10.88;72.90
46223;BME280;31943;51.410;7.564;2023-04-01T06:57:57;98170.28;;;10.92;72.41
46223;BME280;31943;51.410;7.564;2023-04-01T07:00:29;98174.69;;;10.90;72.37
46223;BME280;31943;51.410;7.564;2023-04-01T07:03:06;98172.91;;;10.91;72.82
46223;BME280;31943;51.410;7.564;2023-04-01T07:05:40;98170.31;;;10.91;72.58
46223;BME280;31943;51.410;7.564;2023-04-01T07:08:11;98167.75;;;10.87;72.88
46223;BME280;31943;51.410;7.564;2023-04-01T07:10:46;98183.28;;;10.94;72.56
46223;BME280;31943;51.410;7.564;2023-04-01T07:13:22;98178.94;;;10.94;72.58
46223;BME280;31943;51.410;7.564;2023-04-01T07:15:56;98178.13;;;10.92;72.66
46223;BME280;31943;51.410;7.564;2023-04-01T07:18:32;98177.19;;;10.93;72.26
46223;BME280;31943;51.410;7.564;2023-04-01T07:21:01;98188.44;;;10.97;72.71
46223;BME280;31943;51.410;7.564;2023-04-01T07:23:32;98182.50;;;10.90;72.47
46223;BME280;31943;51.410;7.564;2023-04-01T07:26:06;98192.16;;;10.86;72.81
46223;BME280;31943;51.410;7.564;2023-04-01T07:28:36;98186.03;;;10.87;72.66
46223;BME280;31943;51.410;7.564;2023-04-01T07:31:11;98197.16;;;10.96;72.93
46223;BME280;31943;51.410;7.564;2023-04-01T07:33:48;98190.97;;;11.00;72.51
46223;BME280;31943;51.410;7.564;2023-04-01T07:36:20;98200.44;;;11.04;72.88
46223;BME280;31943;51.410;7.564;2023-04-01T07:38:57;98190.91;;;11.01;72.68
46223;BME280;31943;51.410;7.564;2023-04-01T07:41:30;98200.34;;;11.07;72.84
46223;BME280;31943;51.410;7.564;2023-04-01T07:44:06;98199.31;;;11.14;72.78
46223;BME280;31943;51.410;7.564;2023-04-01T07:46:56;98198.47;;;11.14;72.64
46223;BME280;31943;51.410;7.564;2023-04-01T07:49:55;98205.53;;;11.08;72.66
46223;BME280;31943;51.410;7.564;2023-04-01T07:52:29;98209.06;;;11.07;72.81
46223;BME280;31943;51.410;7.564;2023-04-01T07:55:05;98202.09;;;11.06;72.63
46223;BME280;31943;51.410;7.564;2023-04-01T07:57:38;98207.44;;;11.02;72.55
46223;BME280;31943;51.410;7.564;2023-04-01T08:00:14;98210.94;;;11.01;72.63
46223;BME280;31943;51.410;7.564;2023-04-01T08:02:51;98215.03;;;11.11;72.77
46223;BME280;31943;51.410;7.564;2023-04-01T08:05:27;98221.13;;;11.12;72.55
46223;BME280;31943;51.410;7.564;2023-04-01T08:08:02;98219.50;;;11.07;72.92
46223;BME280;31943;51.410;7.564;2023-04-01T08:10:36;98215.22;;;11.03;73.15
46223;BME280;31943;51.410;7.564;2023-04-01T08:13:12;98223.78;;;11.10;72.72
46223;BME280;31943;51.410;7.564;2023-04-01T08:15:46;98226.28;;;11.13;72.73
46223;BME280;31943;51.410;7.564;2023-04-01T08:18:22;98231.44;;;11.16;72.77
46223;BME280;31943;51.410;7.564;2023-04-01T08:20:56;98237.63;;;11.14;73.05
46223;BME280;31943;51.410;7.564;2023-04-01T08:23:24;98234.88;;;11.18;72.63
46223;BME280;31943;51.410;7.564;2023-04-01T08:25:55;98248.88;;;11.16;72.94
46223;BME280;31943;51.410;7.564;2023-04-01T08:28:25;98238.47;;;11.14;72.78
46223;BME280;31943;51.410;7.564;2023-04-01T08:30:58;98242.72;;;11.18;72.76
46223;BME280;31943;51.410;7.564;2023-04-01T08:33:27;98246.91;;;11.25;72.51
46223;BME280;31943;51.410;7.564;2023-04-01T08:35:57;98246.13;;;11.20;73.03
46223;BME280;31943;51.410;7.564;2023-04-01T08:38:26;98253.28;;;11.14;73.20
46223;BME280;31943;51.410;7.564;2023-04-01T08:41:05;98254.72;;;11.25;73.25
46223;BME280;31943;51.410;7.564;2023-04-01T08:43:45;98259.66;;;11.36;73.08
46223;BME280;31943;51.410;7.564;2023-04-01T08:46:32;98258.69;;;11.40;72.50
46223;BME280;31943;51.410;7.564;2023-04-01T08:49:13;98256.84;;;11.45;72.47
46223;BME280;31943;51.410;7.564;2023-04-01T08:52:07;98267.16;;;11.50;72.58
46223;BME280;31943;51.410;7.564;2023-04-01T08:54:54;98261.38;;;11.39;72.88
46223;BME280;31943;51.410;7.564;2023-04-01T08:57:40;98268.59;;;11.27;73.04
46223;BME280;31943;51.410;7.564;2023-04-01T09:00:18;98270.47;;;11.21;73.60
46223;BME280;31943;51.410;7.564;2023-04-01T09:03:00;98272.38;;;11.16;73.20
46223;BME280;31943;51.410;7.564;2023-04-01T09:08:58;98275.00;;;11.14;73.66
46223;BME280;31943;51.410;7.564;2023-04-01T09:11:34;98277.66;;;11.13;73.54
46223;BME280;31943;51.410;7.564;2023-04-01T09:14:45;98276.94;;;11.06;73.92
46223;BME280;31943;51.410;7.564;2023-04-01T09:17:38;98281.22;;;11.08;73.52
46223;BME280;31943;51.410;7.564;2023-04-01T09:20:39;98280.59;;;10.99;73.79
46223;BME280;31943;51.410;7.564;2023-04-01T09:23:23;98281.44;;;10.99;73.78
46223;BME280;31943;51.410;7.564;2023-04-01T09:26:08;98295.38;;;11.00;73.72
46223;BME280;31943;51.410;7.564;2023-04-01T09:28:42;98299.97;;;10.88;73.89
46223;BME280;31943;51.410;7.564;2023-04-01T09:31:32;98300.00;;;10.85;74.26
46223;BME280;31943;51.410;7.564;2023-04-01T09:34:20;98307.03;;;10.83;74.25
46223;BME280;31943;51.410;7.564;2023-04-01T09:36:57;98310.53;;;10.82;74.43
46223;BME280;31943;51.410;7.564;2023-04-01T09:39:40;98315.75;;;10.82;74.78
46223;BME280;31943;51.410;7.564;2023-04-01T09:42:39;98309.59;;;10.85;74.55
46223;BME280;31943;51.410;7.564;2023-04-01T09:45:11;98318.13;;;10.93;74.59
46223;BME280;31943;51.410;7.564;2023-04-01T09:47:51;98315.44;;;10.96;74.21
46223;BME280;31943;51.410;7.564;2023-04-01T09:50:31;98319.59;;;11.05;74.30
46223;BME280;31943;51.410;7.564;2023-04-01T09:53:17;98326.44;;;11.09;74.33
46223;BME280;31943;51.410;7.564;2023-04-01T10:08:38;98337.06;;;11.01;74.28
46223;BME280;31943;51.410;7.564;2023-04-01T10:11:40;98340.59;;;10.99;74.51
46223;BME280;31943;51.410;7.564;2023-04-01T10:14:25;98339.66;;;11.03;74.57
46223;BME280;31943;51.410;7.564;2023-04-01T10:17:10;98338.97;;;10.95;74.71
46223;BME280;31943;51.410;7.564;2023-04-01T10:20:06;98346.84;;;10.92;74.83
46223;BME280;31943;51.410;7.564;2023-04-01T10:22:52;98346.69;;;10.99;74.68
46223;BME280;31943;51.410;7.564;2023-04-01T10:28:43;98362.91;;;11.14;74.57
46223;BME280;31943;51.410;7.564;2023-04-01T10:32:00;98356.91;;;11.10;74.53
46223;BME280;31943;51.410;7.564;2023-04-01T10:40:53;98364.56;;;11.18;74.53
46223;BME280;31943;51.410;7.564;2023-04-01T10:50:04;98360.34;;;11.48;74.12
46223;BME280;31943;51.410;7.564;2023-04-01T10:55:44;98360.31;;;11.50;74.22
46223;BME280;31943;51.410;7.564;2023-04-01T10:58:34;98363.88;;;11.47;73.80
46223;BME280;31943;51.410;7.564;2023-04-01T11:01:27;98369.94;;;11.49;73.78
46223;BME280;31943;51.410;7.564;2023-04-01T11:04:36;98373.44;;;11.46;73.64
46223;BME280;31943;51.410;7.564;2023-04-01T11:07:40;98366.53;;;11.45;73.60
46223;BME280;31943;51.410;7.564;2023-04-01T11:17:09;98376.00;;;11.50;73.38
46223;BME280;31943;51.410;7.564;2023-04-01T11:22:55;98380.13;;;11.58;73.49
46223;BME280;31943;51.410;7.564;2023-04-01T11:31:22;98397.88;;;11.45;74.01
46223;BME280;31943;51.410;7.564;2023-04-01T11:33:57;98397.59;;;11.56;73.70
46223;BME280;31943;51.410;7.564;2023-04-01T11:36:35;98397.38;;;11.65;73.94
46223;BME280;31943;51.410;7.564;2023-04-01T11:39:12;98392.16;;;11.65;73.79
46223;BME280;31943;51.410;7.564;2023-04-01T11:41:45;98406.22;;;11.60;73.50
46223;BME280;31943;51.410;7.564;2023-04-01T11:44:18;98398.22;;;11.67;73.95
46223;BME280;31943;51.410;7.564;2023-04-01T11:49:46;98409.38;;;11.74;73.12
46223;BME280;31943;51.410;7.564;2023-04-01T11:52:36;98419.03;;;11.72;73.34
46223;BME280;31943;51.410;7.564;2023-04-01T11:55:24;98421.56;;;11.74;73.42
46223;BME280;31943;51.410;7.564;2023-04-01T11:58:12;98421.66;;;11.71;73.35
46223;BME280;31943;51.410;7.564;2023-04-01T12:03:50;98428.81;;;11.62;73.67
46223;BME280;31943;51.410;7.564;2023-04-01T12:06:23;98424.59;;;11.57;73.57
46223;BME280;31943;51.410;7.564;2023-04-01T12:08:58;98432.66;;;11.46;73.69
46223;BME280;31943;51.410;7.564;2023-04-01T12:11:32;98434.44;;;11.45;73.82
46223;BME280;31943;51.410;7.564;2023-04-01T12:14:04;98443.94;;;11.48;74.04
46223;BME280;31943;51.410;7.564;2023-04-01T12:16:42;98449.00;;;11.56;73.93
46223;BME280;31943;51.410;7.564;2023-04-01T12:19:16;98447.38;;;11.50;73.82
46223;BME280;31943;51.410;7.564;2023-04-01T12:21:52;98450.88;;;11.51;73.76
46223;BME280;31943;51.410;7.564;2023-04-01T12:24:46;98453.34;;;11.57;73.89
46223;BME280;31943;51.410;7.564;2023-04-01T12:27:29;98460.94;;;11.66;73.87
46223;BME280;31943;51.410;7.564;2023-04-01T12:33:04;98465.28;;;11.67;74.08
46223;BME280;31943;51.410;7.564;2023-04-01T12:35:45;98462.88;;;11.58;74.12
46223;BME280;31943;51.410;7.564;2023-04-01T12:38:24;98463.66;;;11.63;73.93
46223;BME280;31943;51.410;7.564;2023-04-01T12:41:09;98471.47;;;11.64;74.25
46223;BME280;31943;51.410;7.564;2023-04-01T12:47:00;98478.19;;;11.75;74.05
46223;BME280;31943;51.410;7.564;2023-04-01T12:49:45;98481.66;;;11.75;74.10
46223;BME280;31943;51.410;7.564;2023-04-01T12:52:25;98480.69;;;11.78;74.30
46223;BME280;31943;51.410;7.564;2023-04-01T12:55:21;98484.56;;;11.61;74.10
46223;BME280;31943;51.410;7.564;2023-04-01T12:58:30;98482.88;;;11.60;74.21
46223;BME280;31943;51.410;7.564;2023-04-01T13:01:19;98490.34;;;11.76;74.22
46223;BME280;31943;51.410;7.564;2023-04-01T13:06:55;98491.94;;;11.81;73.66
46223;BME280;31943;51.410;7.564;2023-04-01T13:09:33;98500.84;;;11.74;73.94
46223;BME280;31943;51.410;7.564;2023-04-01T13:12:27;98505.19;;;11.74;74.09
46223;BME280;31943;51.410;7.564;2023-04-01T13:15:13;98510.66;;;11.63;74.44
46223;BME280;31943;51.410;7.564;2023-04-01T13:17:51;98514.38;;;11.53;74.59
46223;BME280;31943;51.410;7.564;2023-04-01T13:20:29;98514.53;;;11.45;74.71
46223;BME280;31943;51.410;7.564;2023-04-01T13:23:09;98529.31;;;11.46;74.98
46223;BME280;31943;51.410;7.564;2023-04-01T13:25:41;98521.59;;;11.41;75.00
46223;BME280;31943;51.410;7.564;2023-04-01T13:28:17;98522.31;;;11.46;75.08
46223;BME280;31943;51.410;7.564;2023-04-01T13:30:49;98525.72;;;11.52;75.22
46223;BME280;31943;51.410;7.564;2023-04-01T13:33:27;98527.34;;;11.57;75.28
46223;BME280;31943;51.410;7.564;2023-04-01T13:36:06;98526.44;;;11.58;74.97
46223;BME280;31943;51.410;7.564;2023-04-01T13:38:55;98535.13;;;11.60;75.10
46223;BME280;31943;51.410;7.564;2023-04-01T13:41:39;98539.72;;;11.49;75.30
46223;BME280;31943;51.410;7.564;2023-04-01T13:44:14;98534.69;;;11.38;75.12
46223;BME280;31943;51.410;7.564;2023-04-01T13:46:57;98541.00;;;11.28;75.56
46223;BME280;31943;51.410;7.564;2023-04-01T13:49:57;98539.44;;;11.19;75.33
46223;BME280;31943;51.410;7.564;2023-04-01T13:52:44;98542.97;;;11.15;76.12
46223;BME280;31943;51.410;7.564;2023-04-01T13:55:37;98553.41;;;11.17;75.89
46223;BME280;31943;51.410;7.564;2023-04-01T13:58:20;98553.34;;;11.20;75.88
46223;BME280;31943;51.410;7.564;2023-04-01T14:00:56;98551.34;;;11.33;75.90
46223;BME280;31943;51.410;7.564;2023-04-01T14:03:32;98558.13;;;11.43;75.32
46223;BME280;31943;51.410;7.564;2023-04-01T14:06:23;98552.84;;;11.44;74.95
46223;BME280;31943;51.410;7.564;2023-04-01T14:09:03;98558.84;;;11.50;75.24
46223;BME280;31943;51.410;7.564;2023-04-01T14:11:36;98562.25;;;11.53;75.21
46223;BME280;31943;51.410;7.564;2023-04-01T14:14:14;98556.84;;;11.62;75.12
46223;BME280;31943;51.410;7.564;2023-04-01T14:17:11;98563.09;;;11.55;74.96
46223;BME280;31943;51.410;7.564;2023-04-01T14:19:58;98570.97;;;11.52;75.28
46223;BME280;31943;51.410;7.564;2023-04-01T14:22:32;98572.59;;;11.58;75.00
46223;BME280;31943;51.410;7.564;2023-04-01T14:25:29;98576.81;;;11.65;75.04
46223;BME280;31943;51.410;7.564;2023-04-01T14:28:11;98578.50;;;11.67;74.71
46223;BME280;31943;51.410;7.564;2023-04-01T14:30:51;98581.38;;;11.55;74.76
46223;BME280;31943;51.410;7.564;2023-04-01T14:33:39;98584.09;;;11.51;74.63
46223;BME280;31943;51.410;7.564;2023-04-01T14:36:49;98582.38;;;11.48;74.75
46223;BME280;31943;51.410;7.564;2023-04-01T14:39:43;98595.59;;;11.40;74.62
46223;BME280;31943;51.410;7.564;2023-04-01T14:42:23;98599.22;;;11.33;75.07
46223;BME280;31943;51.410;7.564;2023-04-01T14:45:08;98599.25;;;11.32;75.04
46223;BME280;31943;51.410;7.564;2023-04-01T14:47:48;98599.16;;;11.36;75.27
46223;BME280;31943;51.410;7.564;2023-04-01T14:50:18;98594.84;;;11.34;75.43
46223;BME280;31943;51.410;7.564;2023-04-01T14:52:54;98602.53;;;11.41;75.33
46223;BME280;31943;51.410;7.564;2023-04-01T14:55:28;98598.03;;;11.48;75.10
46223;BME280;31943;51.410;7.564;2023-04-01T14:58:07;98609.25;;;11.55;75.09